sensor_id;sensor_type;location;lat;lon;timestamp;P1;durP1;ratioP1;P2;durP2;ratioP2
9413;SDS011;4746;35.664;139.738;2024-03-08T00:00:11;11.20;;;10.30;;
9413;SDS011;4746;35.664;139.738;2024-03-08T00:02:40;11.30;;;10.40;;
9413;SDS011;4746;35.664;139.738;2024-03-08T00:05:08;10.80;;;9.90;;
9413;SDS011;4746;35.664;139.738;2024-03-08T00:07:37;9.87;;;8.97;;
9413;SDS011;4746;35.664;139.738;2024-03-08T00:10:06;69.90;;;14.83;;
9413;SDS011;4746;35.664;139.738;2024-03-08T00:12:38;82.23;;;19.67;;
9413;SDS011;4746;35.664;139.738;2024-03-08T00:15:08;9.47;;;8.67;;
9413;SDS011;4746;35.664;139.738;2024-03-08T00:17:39;9.10;;;8.40;;
9413;SDS011;4746;35.664;139.738;2024-03-08T00:20:08;31.97;;;12.13;;
9413;SDS011;4746;35.664;139.738;2024-03-08T00:22:36;10.53;;;9.70;;
9413;SDS011;4746;35.664;139.738;2024-03-08T00:25:05;10.33;;;9.53;;
9413;SDS011;4746;35.664;139.738;2024-03-08T00:27:37;10.43;;;9.60;;
9413;SDS011;4746;35.664;139.738;2024-03-08T00:30:08;10.50;;;9.70;;
9413;SDS011;4746;35.664;139.738;2024-03-08T00:32:38;9.93;;;9.13;;
9413;SDS011;4746;35.664;139.738;2024-03-08T00:35:06;9.53;;;8.83;;
9413;SDS011;4746;35.664;139.738;2024-03-08T00:37:34;9.00;;;8.30;;
9413;SDS011;4746;35.664;139.738;2024-03-08T00:40:02;98.80;;;16.30;;
9413;SDS011;4746;35.664;139.738;2024-03-08T00:42:34;10.27;;;9.43;;
9413;SDS011;4746;35.664;139.738;2024-03-08T00:45:04;10.47;;;9.57;;
9413;SDS011;4746;35.664;139.738;2024-03-08T00:47:32;9.33;;;8.70;;
9413;SDS011;4746;35.664;139.738;2024-03-08T00:49:59;9.60;;;8.90;;
9413;SDS011;4746;35.664;139.738;2024-03-08T00:52:29;10.20;;;9.30;;
9413;SDS011;4746;35.664;139.738;2024-03-08T00:54:57;9.03;;;8.33;;
9413;SDS011;4746;35.664;139.738;2024-03-08T00:57:24;9.90;;;9.10;;
9413;SDS011;4746;35.664;139.738;2024-03-08T00:59:53;16.47;;;10.37;;
9413;SDS011;4746;35.664;139.738;2024-03-08T01:02:21;9.87;;;9.07;;
9413;SDS011;4746;35.664;139.738;2024-03-08T01:04:49;10.10;;;9.10;;
9413;SDS011;4746;35.664;139.738;2024-03-08T01:07:16;9.60;;;8.90;;
9413;SDS011;4746;35.664;139.738;2024-03-08T01:09:44;10.63;;;9.87;;
9413;SDS011;4746;35.664;139.738;2024-03-08T01:12:11;35.00;;;12.23;;
9413;SDS011;4746;35.664;139.738;2024-03-08T01:14:40;10.20;;;9.40;;
9413;SDS011;4746;35.664;139.738;2024-03-08T01:17:07;9.97;;;9.17;;
9413;SDS011;4746;35.664;139.738;2024-03-08T01:19:35;21.87;;;11.37;;
9413;SDS011;4746;35.664;139.738;2024-03-08T01:22:02;10.80;;;9.87;;
9413;SDS011;4746;35.664;139.738;2024-03-08T01:24:30;10.50;;;9.70;;
9413;SDS011;4746;35.664;139.738;2024-03-08T01:26:58;10.17;;;9.37;;
9413;SDS011;4746;35.664;139.738;2024-03-08T01:29:27;10.43;;;9.63;;
9413;SDS011;4746;35.664;139.738;2024-03-08T01:31:57;38.33;;;13.67;;
9413;SDS011;4746;35.664;139.738;2024-03-08T01:34:27;11.40;;;10.50;;
9413;SDS011;4746;35.664;139.738;2024-03-08T01:36:54;11.27;;;10.37;;
9413;SDS011;4746;35.664;139.738;2024-03-08T01:39:23;13.30;;;12.10;;
9413;SDS011;4746;35.664;139.738;2024-03-08T01:41:50;12.13;;;11.03;;
9413;SDS011;4746;35.664;139.738;2024-03-08T01:44:19;12.03;;;11.03;;
9413;SDS011;4746;35.664;139.738;2024-03-08T01:46:47;12.10;;;11.10;;
9413;SDS011;4746;35.664;139.738;2024-03-08T01:49:18;12.30;;;11.30;;
9413;SDS011;4746;35.664;139.738;2024-03-08T01:51:49;13.73;;;12.53;;
9413;SDS011;4746;35.664;139.738;2024-03-08T01:54:18;12.37;;;11.33;;
9413;SDS011;4746;35.664;139.738;2024-03-08T01:56:46;12.03;;;10.93;;
9413;SDS011;4746;35.664;139.738;2024-03-08T01:59:14;60.30;;;18.07;;
9413;SDS011;4746;35.664;139.738;2024-03-08T02:01:43;11.60;;;10.60;;
9413;SDS011;4746;35.664;139.738;2024-03-08T02:04:11;10.90;;;9.93;;
9413;SDS011;4746;35.664;139.738;2024-03-08T02:06:39;11.97;;;10.93;;
9413;SDS011;4746;35.664;139.738;2024-03-08T02:09:07;12.53;;;11.43;;
9413;SDS011;4746;35.664;139.738;2024-03-08T02:11:35;12.77;;;11.70;;
9413;SDS011;4746;35.664;139.738;2024-03-08T02:14:03;12.17;;;11.27;;
9413;SDS011;4746;35.664;139.738;2024-03-08T02:16:31;11.20;;;10.30;;
9413;SDS011;4746;35.664;139.738;2024-03-08T02:18:59;11.13;;;10.20;;
9413;SDS011;4746;35.664;139.738;2024-03-08T02:21:27;10.83;;;9.93;;
9413;SDS011;4746;35.664;139.738;2024-03-08T02:23:57;10.90;;;10.00;;
9413;SDS011;4746;35.664;139.738;2024-03-08T02:26:24;10.40;;;9.60;;
9413;SDS011;4746;35.664;139.738;2024-03-08T02:28:52;11.03;;;10.13;;
9413;SDS011;4746;35.664;139.738;2024-03-08T02:31:20;10.13;;;9.30;;
9413;SDS011;4746;35.664;139.738;2024-03-08T02:33:47;10.13;;;9.40;;
9413;SDS011;4746;35.664;139.738;2024-03-08T02:36:15;9.03;;;8.33;;
9413;SDS011;4746;35.664;139.738;2024-03-08T02:38:42;9.50;;;8.80;;
9413;SDS011;4746;35.664;139.738;2024-03-08T02:41:10;9.13;;;8.43;;
9413;SDS011;4746;35.664;139.738;2024-03-08T02:43:38;8.93;;;8.20;;
9413;SDS011;4746;35.664;139.738;2024-03-08T02:46:05;10.33;;;9.43;;
9413;SDS011;4746;35.664;139.738;2024-03-08T02:48:33;8.43;;;7.83;;
9413;SDS011;4746;35.664;139.738;2024-03-08T02:51:00;8.83;;;8.03;;
9413;SDS011;4746;35.664;139.738;2024-03-08T02:53:28;8.87;;;8.17;;
9413;SDS011;4746;35.664;139.738;2024-03-08T02:55:56;8.27;;;7.67;;
9413;SDS011;4746;35.664;139.738;2024-03-08T02:58:24;9.17;;;8.33;;
9413;SDS011;4746;35.664;139.738;2024-03-08T03:00:52;10.40;;;9.50;;
9413;SDS011;4746;35.664;139.738;2024-03-08T03:03:20;8.60;;;8.00;;
9413;SDS011;4746;35.664;139.738;2024-03-08T03:05:48;9.93;;;9.23;;
9413;SDS011;4746;35.664;139.738;2024-03-08T03:08:15;9.30;;;8.60;;
9413;SDS011;4746;35.664;139.738;2024-03-08T03:10:43;9.53;;;8.73;;
9413;SDS011;4746;35.664;139.738;2024-03-08T03:13:11;12.17;;;10.97;;
9413;SDS011;4746;35.664;139.738;2024-03-08T03:15:39;12.30;;;11.27;;
9413;SDS011;4746;35.664;139.738;2024-03-08T03:18:10;12.30;;;11.27;;
9413;SDS011;4746;35.664;139.738;2024-03-08T03:20:37;10.03;;;9.17;;
9413;SDS011;4746;35.664;139.738;2024-03-08T03:23:08;10.13;;;9.43;;
9413;SDS011;4746;35.664;139.738;2024-03-08T03:25:39;11.47;;;10.40;;
9413;SDS011;4746;35.664;139.738;2024-03-08T03:28:07;8.70;;;8.07;;
9413;SDS011;4746;35.664;139.738;2024-03-08T03:30:36;10.47;;;9.50;;
9413;SDS011;4746;35.664;139.738;2024-03-08T03:33:04;7.97;;;7.37;;
9413;SDS011;4746;35.664;139.738;2024-03-08T03:35:32;7.43;;;6.87;;
9413;SDS011;4746;35.664;139.738;2024-03-08T03:38:01;6.93;;;6.43;;
9413;SDS011;4746;35.664;139.738;2024-03-08T03:40:37;8.07;;;7.50;;
9413;SDS011;4746;35.664;139.738;2024-03-08T03:43:06;9.30;;;8.60;;
9413;SDS011;4746;35.664;139.738;2024-03-08T03:45:35;8.97;;;8.17;;
9413;SDS011;4746;35.664;139.738;2024-03-08T03:48:03;8.30;;;7.60;;
9413;SDS011;4746;35.664;139.738;2024-03-08T03:50:34;10.10;;;9.23;;
9413;SDS011;4746;35.664;139.738;2024-03-08T03:53:02;8.87;;;8.17;;
9413;SDS011;4746;35.664;139.738;2024-03-08T03:55:34;8.37;;;7.77;;
9413;SDS011;4746;35.664;139.738;2024-03-08T03:58:04;8.10;;;7.57;;
9413;SDS011;4746;35.664;139.738;2024-03-08T04:00:32;8.67;;;8.03;;
9413;SDS011;4746;35.664;139.738;2024-03-08T04:02:59;9.27;;;8.50;;
9413;SDS011;4746;35.664;139.738;2024-03-08T04:05:27;8.63;;;7.90;;
9413;SDS011;4746;35.664;139.738;2024-03-08T04:07:56;8.37;;;7.87;;
9413;SDS011;4746;35.664;139.738;2024-03-08T04:10:23;7.97;;;7.47;;
9413;SDS011;4746;35.664;139.738;2024-03-08T04:12:51;8.67;;;7.93;;
9413;SDS011;4746;35.664;139.738;2024-03-08T04:15:19;8.53;;;7.93;;
9413;SDS011;4746;35.664;139.738;2024-03-08T04:17:46;8.63;;;7.97;;
9413;SDS011;4746;35.664;139.738;2024-03-08T04:20:14;7.97;;;7.47;;
9413;SDS011;4746;35.664;139.738;2024-03-08T04:22:42;8.40;;;7.80;;
9413;SDS011;4746;35.664;139.738;2024-03-08T04:25:14;8.37;;;7.77;;
9413;SDS011;4746;35.664;139.738;2024-03-08T04:27:42;8.97;;;8.27;;
9413;SDS011;4746;35.664;139.738;2024-03-08T04:30:10;8.83;;;8.10;;
9413;SDS011;4746;35.664;139.738;2024-03-08T04:32:38;9.83;;;9.10;;
9413;SDS011;4746;35.664;139.738;2024-03-08T04:35:07;9.37;;;8.60;;
9413;SDS011;4746;35.664;139.738;2024-03-08T04:37:34;9.10;;;8.40;;
9413;SDS011;4746;35.664;139.738;2024-03-08T04:40:02;7.60;;;7.10;;
9413;SDS011;4746;35.664;139.738;2024-03-08T04:42:30;7.00;;;6.60;;
9413;SDS011;4746;35.664;139.738;2024-03-08T04:44:59;7.90;;;7.30;;
9413;SDS011;4746;35.664;139.738;2024-03-08T04:47:27;9.10;;;8.40;;
9413;SDS011;4746;35.664;139.738;2024-03-08T04:49:55;8.93;;;8.30;;
9413;SDS011;4746;35.664;139.738;2024-03-08T04:52:23;9.50;;;8.67;;
9413;SDS011;4746;35.664;139.738;2024-03-08T04:54:51;8.50;;;7.90;;
9413;SDS011;4746;35.664;139.738;2024-03-08T04:57:19;9.13;;;8.43;;
9413;SDS011;4746;35.664;139.738;2024-03-08T04:59:46;8.87;;;8.27;;
9413;SDS011;4746;35.664;139.738;2024-03-08T05:02:14;8.33;;;7.73;;
9413;SDS011;4746;35.664;139.738;2024-03-08T05:04:42;8.53;;;7.93;;
9413;SDS011;4746;35.664;139.738;2024-03-08T05:07:10;9.27;;;8.53;;
9413;SDS011;4746;35.664;139.738;2024-03-08T05:09:37;9.03;;;8.43;;
9413;SDS011;4746;35.664;139.738;2024-03-08T05:12:08;8.60;;;8.10;;
9413;SDS011;4746;35.664;139.738;2024-03-08T05:14:35;9.20;;;8.50;;
9413;SDS011;4746;35.664;139.738;2024-03-08T05:17:03;9.40;;;8.68;;
9413;SDS011;4746;35.664;139.738;2024-03-08T05:19:32;9.85;;;9.13;;
9413;SDS011;4746;35.664;139.738;2024-03-08T05:22:03;8.88;;;8.27;;
9413;SDS011;4746;35.664;139.738;2024-03-08T05:24:30;8.90;;;8.20;;
9413;SDS011;4746;35.664;139.738;2024-03-08T05:27:00;8.70;;;7.88;;
9413;SDS011;4746;35.664;139.738;2024-03-08T05:29:29;7.85;;;7.35;;
9413;SDS011;4746;35.664;139.738;2024-03-08T05:31:56;8.25;;;7.65;;
9413;SDS011;4746;35.664;139.738;2024-03-08T05:34:24;7.70;;;7.18;;
9413;SDS011;4746;35.664;139.738;2024-03-08T05:36:54;7.97;;;7.47;;
9413;SDS011;4746;35.664;139.738;2024-03-08T05:39:23;8.25;;;7.50;;
9413;SDS011;4746;35.664;139.738;2024-03-08T05:41:52;7.18;;;6.68;;
9413;SDS011;4746;35.664;139.738;2024-03-08T05:44:20;7.05;;;6.55;;
9413;SDS011;4746;35.664;139.738;2024-03-08T05:46:48;6.88;;;6.43;;
9413;SDS011;4746;35.664;139.738;2024-03-08T05:49:16;6.97;;;6.47;;
9413;SDS011;4746;35.664;139.738;2024-03-08T05:51:43;6.88;;;6.38;;
9413;SDS011;4746;35.664;139.738;2024-03-08T05:54:13;6.97;;;6.40;;
9413;SDS011;4746;35.664;139.738;2024-03-08T05:56:40;6.93;;;6.43;;
9413;SDS011;4746;35.664;139.738;2024-03-08T05:59:12;6.47;;;5.97;;
9413;SDS011;4746;35.664;139.738;2024-03-08T06:01:43;6.18;;;5.72;;
9413;SDS011;4746;35.664;139.738;2024-03-08T06:04:12;6.20;;;5.70;;
9413;SDS011;4746;35.664;139.738;2024-03-08T06:06:40;6.30;;;5.90;;
9413;SDS011;4746;35.664;139.738;2024-03-08T06:09:07;6.60;;;6.10;;
9413;SDS011;4746;35.664;139.738;2024-03-08T06:11:39;5.72;;;5.32;;
9413;SDS011;4746;35.664;139.738;2024-03-08T06:14:08;5.70;;;5.20;;
9413;SDS011;4746;35.664;139.738;2024-03-08T06:16:47;6.43;;;5.93;;
9413;SDS011;4746;35.664;139.738;2024-03-08T06:19:20;6.95;;;6.40;;
9413;SDS011;4746;35.664;139.738;2024-03-08T06:21:48;6.30;;;5.90;;
9413;SDS011;4746;35.664;139.738;2024-03-08T06:24:17;6.72;;;6.15;;
9413;SDS011;4746;35.664;139.738;2024-03-08T06:26:45;6.60;;;6.13;;
9413;SDS011;4746;35.664;139.738;2024-03-08T06:29:14;6.10;;;5.70;;
9413;SDS011;4746;35.664;139.738;2024-03-08T06:31:42;6.05;;;5.63;;
9413;SDS011;4746;35.664;139.738;2024-03-08T06:34:12;5.90;;;5.43;;
9413;SDS011;4746;35.664;139.738;2024-03-08T06:36:41;5.78;;;5.28;;
9413;SDS011;4746;35.664;139.738;2024-03-08T06:39:08;6.25;;;5.88;;
9413;SDS011;4746;35.664;139.738;2024-03-08T06:41:36;6.00;;;5.60;;
9413;SDS011;4746;35.664;139.738;2024-03-08T06:44:04;6.15;;;5.75;;
9413;SDS011;4746;35.664;139.738;2024-03-08T06:46:33;6.50;;;6.00;;
9413;SDS011;4746;35.664;139.738;2024-03-08T06:49:01;6.70;;;6.20;;
9413;SDS011;4746;35.664;139.738;2024-03-08T06:51:28;7.18;;;6.78;;
9413;SDS011;4746;35.664;139.738;2024-03-08T06:53:56;6.97;;;6.45;;
9413;SDS011;4746;35.664;139.738;2024-03-08T06:56:23;6.60;;;6.20;;
9413;SDS011;4746;35.664;139.738;2024-03-08T06:58:53;6.90;;;6.30;;
9413;SDS011;4746;35.664;139.738;2024-03-08T07:01:21;7.27;;;6.63;;
9413;SDS011;4746;35.664;139.738;2024-03-08T07:03:48;6.90;;;6.40;;
9413;SDS011;4746;35.664;139.738;2024-03-08T07:06:18;7.97;;;7.20;;
9413;SDS011;4746;35.664;139.738;2024-03-08T07:08:45;6.70;;;6.10;;
9413;SDS011;4746;35.664;139.738;2024-03-08T07:11:14;7.20;;;6.70;;
9413;SDS011;4746;35.664;139.738;2024-03-08T07:13:44;7.23;;;6.73;;
9413;SDS011;4746;35.664;139.738;2024-03-08T07:16:12;6.97;;;6.27;;
9413;SDS011;4746;35.664;139.738;2024-03-08T07:18:40;8.97;;;8.10;;
9413;SDS011;4746;35.664;139.738;2024-03-08T07:21:09;10.07;;;9.37;;
9413;SDS011;4746;35.664;139.738;2024-03-08T07:23:36;10.20;;;9.50;;
9413;SDS011;4746;35.664;139.738;2024-03-08T07:26:33;11.00;;;10.10;;
9413;SDS011;4746;35.664;139.738;2024-03-08T07:29:01;11.13;;;10.13;;
9413;SDS011;4746;35.664;139.738;2024-03-08T07:31:28;11.17;;;10.23;;
9413;SDS011;4746;35.664;139.738;2024-03-08T07:34:07;11.73;;;10.43;;
9413;SDS011;4746;35.664;139.738;2024-03-08T07:36:35;13.33;;;11.93;;
9413;SDS011;4746;35.664;139.738;2024-03-08T07:39:03;11.37;;;10.47;;
9413;SDS011;4746;35.664;139.738;2024-03-08T07:41:37;12.00;;;10.80;;
9413;SDS011;4746;35.664;139.738;2024-03-08T07:44:08;13.70;;;11.83;;
9413;SDS011;4746;35.664;139.738;2024-03-08T07:46:36;12.47;;;11.37;;
9413;SDS011;4746;35.664;139.738;2024-03-08T07:49:04;11.27;;;10.27;;
9413;SDS011;4746;35.664;139.738;2024-03-08T07:51:31;11.80;;;10.87;;
9413;SDS011;4746;35.664;139.738;2024-03-08T07:54:00;11.63;;;10.63;;
9413;SDS011;4746;35.664;139.738;2024-03-08T07:56:30;10.90;;;10.00;;
9413;SDS011;4746;35.664;139.738;2024-03-08T07:58:57;11.17;;;10.37;;
9413;SDS011;4746;35.664;139.738;2024-03-08T08:01:25;11.67;;;10.67;;
9413;SDS011;4746;35.664;139.738;2024-03-08T08:03:52;11.40;;;10.50;;
9413;SDS011;4746;35.664;139.738;2024-03-08T08:06:22;11.30;;;10.30;;
9413;SDS011;4746;35.664;139.738;2024-03-08T08:08:50;10.67;;;9.83;;
9413;SDS011;4746;35.664;139.738;2024-03-08T08:11:19;10.40;;;9.40;;
9413;SDS011;4746;35.664;139.738;2024-03-08T08:13:46;10.73;;;9.67;;
9413;SDS011;4746;35.664;139.738;2024-03-08T08:16:14;9.97;;;9.17;;
9413;SDS011;4746;35.664;139.738;2024-03-08T08:18:42;11.00;;;10.17;;
9413;SDS011;4746;35.664;139.738;2024-03-08T08:21:13;9.90;;;9.13;;
9413;SDS011;4746;35.664;139.738;2024-03-08T08:23:40;10.93;;;10.03;;
9413;SDS011;4746;35.664;139.738;2024-03-08T08:26:08;10.37;;;9.53;;
9413;SDS011;4746;35.664;139.738;2024-03-08T08:28:36;11.57;;;10.50;;
9413;SDS011;4746;35.664;139.738;2024-03-08T08:31:06;10.77;;;9.87;;
9413;SDS011;4746;35.664;139.738;2024-03-08T08:33:33;11.20;;;10.30;;
9413;SDS011;4746;35.664;139.738;2024-03-08T08:36:02;10.43;;;9.53;;
9413;SDS011;4746;35.664;139.738;2024-03-08T08:38:30;10.87;;;9.87;;
9413;SDS011;4746;35.664;139.738;2024-03-08T08:40:58;8.97;;;8.27;;
9413;SDS011;4746;35.664;139.738;2024-03-08T08:43:27;10.07;;;9.20;;
9413;SDS011;4746;35.664;139.738;2024-03-08T08:45:55;10.60;;;9.70;;
9413;SDS011;4746;35.664;139.738;2024-03-08T08:48:22;9.83;;;9.07;;
9413;SDS011;4746;35.664;139.738;2024-03-08T08:50:50;10.13;;;9.33;;
9413;SDS011;4746;35.664;139.738;2024-03-08T08:53:18;10.40;;;9.50;;
9413;SDS011;4746;35.664;139.738;2024-03-08T08:55:45;9.60;;;8.90;;
9413;SDS011;4746;35.664;139.738;2024-03-08T08:58:13;9.40;;;8.70;;
9413;SDS011;4746;35.664;139.738;2024-03-08T09:00:41;10.20;;;9.37;;
9413;SDS011;4746;35.664;139.738;2024-03-08T09:03:09;9.80;;;9.10;;
9413;SDS011;4746;35.664;139.738;2024-03-08T09:05:37;10.53;;;9.53;;
9413;SDS011;4746;35.664;139.738;2024-03-08T09:08:09;9.30;;;8.43;;
9413;SDS011;4746;35.664;139.738;2024-03-08T09:10:36;10.17;;;9.33;;
9413;SDS011;4746;35.664;139.738;2024-03-08T09:13:04;9.30;;;8.40;;
9413;SDS011;4746;35.664;139.738;2024-03-08T09:15:32;9.77;;;8.90;;
9413;SDS011;4746;35.664;139.738;2024-03-08T09:18:00;10.27;;;9.47;;
9413;SDS011;4746;35.664;139.738;2024-03-08T09:20:27;9.13;;;8.33;;
9413;SDS011;4746;35.664;139.738;2024-03-08T09:22:57;9.50;;;8.80;;
9413;SDS011;4746;35.664;139.738;2024-03-08T09:25:25;9.93;;;9.10;;
9413;SDS011;4746;35.664;139.738;2024-03-08T09:27:53;9.10;;;8.50;;
9413;SDS011;4746;35.664;139.738;2024-03-08T09:30:21;10.63;;;9.77;;
9413;SDS011;4746;35.664;139.738;2024-03-08T09:32:49;10.80;;;9.90;;
9413;SDS011;4746;35.664;139.738;2024-03-08T09:35:16;10.23;;;9.43;;
9413;SDS011;4746;35.664;139.738;2024-03-08T09:37:45;10.67;;;9.60;;
9413;SDS011;4746;35.664;139.738;2024-03-08T09:40:16;10.30;;;9.50;;
9413;SDS011;4746;35.664;139.738;2024-03-08T09:42:48;9.20;;;8.40;;
9413;SDS011;4746;35.664;139.738;2024-03-08T09:45:16;8.63;;;8.03;;
9413;SDS011;4746;35.664;139.738;2024-03-08T09:47:48;9.23;;;8.47;;
9413;SDS011;4746;35.664;139.738;2024-03-08T09:50:15;8.97;;;8.13;;
9413;SDS011;4746;35.664;139.738;2024-03-08T09:52:46;9.07;;;8.30;;
9413;SDS011;4746;35.664;139.738;2024-03-08T09:55:15;10.53;;;9.73;;
9413;SDS011;4746;35.664;139.738;2024-03-08T09:57:47;9.97;;;9.00;;
9413;SDS011;4746;35.664;139.738;2024-03-08T10:00:33;9.97;;;9.10;;
9413;SDS011;4746;35.664;139.738;2024-03-08T10:03:02;10.13;;;9.33;;
9413;SDS011;4746;35.664;139.738;2024-03-08T10:05:31;9.90;;;9.20;;
9413;SDS011;4746;35.664;139.738;2024-03-08T10:07:58;9.00;;;8.30;;
9413;SDS011;4746;35.664;139.738;2024-03-08T10:10:28;10.20;;;9.43;;
9413;SDS011;4746;35.664;139.738;2024-03-08T10:12:56;9.50;;;8.70;;
9413;SDS011;4746;35.664;139.738;2024-03-08T10:15:26;9.03;;;8.30;;
9413;SDS011;4746;35.664;139.738;2024-03-08T10:17:58;10.20;;;9.20;;
9413;SDS011;4746;35.664;139.738;2024-03-08T10:20:33;9.17;;;8.43;;
9413;SDS011;4746;35.664;139.738;2024-03-08T10:23:01;10.27;;;9.37;;
9413;SDS011;4746;35.664;139.738;2024-03-08T10:25:31;10.07;;;9.27;;
9413;SDS011;4746;35.664;139.738;2024-03-08T10:27:59;10.77;;;9.87;;
9413;SDS011;4746;35.664;139.738;2024-03-08T10:30:32;9.77;;;8.97;;
9413;SDS011;4746;35.664;139.738;2024-03-08T10:33:00;8.67;;;7.97;;
9413;SDS011;4746;35.664;139.738;2024-03-08T10:35:30;7.50;;;6.90;;
9413;SDS011;4746;35.664;139.738;2024-03-08T10:37:58;8.13;;;7.47;;
9413;SDS011;4746;35.664;139.738;2024-03-08T10:40:32;7.37;;;6.77;;
9413;SDS011;4746;35.664;139.738;2024-03-08T10:43:01;7.90;;;7.20;;
9413;SDS011;4746;35.664;139.738;2024-03-08T10:45:37;7.33;;;6.83;;
9413;SDS011;4746;35.664;139.738;2024-03-08T10:50:42;8.30;;;7.63;;
9413;SDS011;4746;35.664;139.738;2024-03-08T10:53:13;9.43;;;8.73;;
9413;SDS011;4746;35.664;139.738;2024-03-08T10:55:43;9.83;;;8.73;;
9413;SDS011;4746;35.664;139.738;2024-03-08T10:58:12;9.47;;;8.67;;
9413;SDS011;4746;35.664;139.738;2024-03-08T11:00:41;9.20;;;8.43;;
9413;SDS011;4746;35.664;139.738;2024-03-08T11:03:43;10.17;;;9.37;;
9413;SDS011;4746;35.664;139.738;2024-03-08T11:12:18;9.03;;;8.13;;
9413;SDS011;4746;35.664;139.738;2024-03-08T11:15:12;10.80;;;9.80;;
9413;SDS011;4746;35.664;139.738;2024-03-08T11:17:40;9.87;;;8.87;;
9413;SDS011;4746;35.664;139.738;2024-03-08T11:20:27;10.60;;;9.60;;
9413;SDS011;4746;35.664;139.738;2024-03-08T11:23:01;10.53;;;9.63;;
9413;SDS011;4746;35.664;139.738;2024-03-08T11:28:11;9.10;;;8.40;;
9413;SDS011;4746;35.664;139.738;2024-03-08T11:30:47;8.57;;;7.77;;
9413;SDS011;4746;35.664;139.738;2024-03-08T11:33:37;9.07;;;8.27;;
9413;SDS011;4746;35.664;139.738;2024-03-08T11:36:13;8.80;;;8.13;;
9413;SDS011;4746;35.664;139.738;2024-03-08T11:38:48;10.13;;;9.33;;
9413;SDS011;4746;35.664;139.738;2024-03-08T11:41:22;10.07;;;9.10;;
9413;SDS011;4746;35.664;139.738;2024-03-08T11:44:01;11.13;;;10.03;;
9413;SDS011;4746;35.664;139.738;2024-03-08T11:46:31;11.30;;;10.30;;
9413;SDS011;4746;35.664;139.738;2024-03-08T11:48:59;10.80;;;9.83;;
9413;SDS011;4746;35.664;139.738;2024-03-08T11:51:28;10.80;;;9.90;;
9413;SDS011;4746;35.664;139.738;2024-03-08T11:53:58;12.37;;;11.30;;
9413;SDS011;4746;35.664;139.738;2024-03-08T11:56:25;11.73;;;10.73;;
9413;SDS011;4746;35.664;139.738;2024-03-08T11:58:57;11.63;;;10.53;;
9413;SDS011;4746;35.664;139.738;2024-03-08T12:01:26;11.43;;;10.43;;
9413;SDS011;4746;35.664;139.738;2024-03-08T12:03:54;11.07;;;10.07;;
9413;SDS011;4746;35.664;139.738;2024-03-08T12:06:27;11.37;;;10.37;;
9413;SDS011;4746;35.664;139.738;2024-03-08T12:09:09;10.37;;;9.47;;
9413;SDS011;4746;35.664;139.738;2024-03-08T12:11:38;9.83;;;8.93;;
9413;SDS011;4746;35.664;139.738;2024-03-08T12:14:08;9.73;;;8.87;;
9413;SDS011;4746;35.664;139.738;2024-03-08T12:16:37;10.73;;;9.83;;
9413;SDS011;4746;35.664;139.738;2024-03-08T12:19:04;10.83;;;9.83;;
9413;SDS011;4746;35.664;139.738;2024-03-08T12:21:35;9.67;;;8.77;;
9413;SDS011;4746;35.664;139.738;2024-03-08T12:24:08;10.33;;;9.43;;
9413;SDS011;4746;35.664;139.738;2024-03-08T12:26:37;9.17;;;8.47;;
9413;SDS011;4746;35.664;139.738;2024-03-08T12:29:17;10.03;;;9.33;;
9413;SDS011;4746;35.664;139.738;2024-03-08T12:31:55;9.60;;;8.70;;
9413;SDS011;4746;35.664;139.738;2024-03-08T12:34:30;9.20;;;8.50;;
9413;SDS011;4746;35.664;139.738;2024-03-08T12:36:58;10.63;;;9.73;;
9413;SDS011;4746;35.664;139.738;2024-03-08T12:39:27;10.57;;;9.67;;
9413;SDS011;4746;35.664;139.738;2024-03-08T12:41:56;10.77;;;9.80;;
9413;SDS011;4746;35.664;139.738;2024-03-08T12:44:25;9.60;;;8.80;;
9413;SDS011;4746;35.664;139.738;2024-03-08T12:46:54;10.27;;;9.37;;
9413;SDS011;4746;35.664;139.738;2024-03-08T12:49:24;10.37;;;9.47;;
9413;SDS011;4746;35.664;139.738;2024-03-08T12:51:52;8.40;;;7.70;;
9413;SDS011;4746;35.664;139.738;2024-03-08T12:54:21;9.07;;;8.37;;
9413;SDS011;4746;35.664;139.738;2024-03-08T12:56:49;10.20;;;9.27;;
9413;SDS011;4746;35.664;139.738;2024-03-08T12:59:20;9.80;;;8.90;;
9413;SDS011;4746;35.664;139.738;2024-03-08T13:01:49;10.37;;;9.47;;
9413;SDS011;4746;35.664;139.738;2024-03-08T13:04:19;9.70;;;8.90;;
9413;SDS011;4746;35.664;139.738;2024-03-08T13:06:47;9.70;;;8.87;;
9413;SDS011;4746;35.664;139.738;2024-03-08T13:09:15;10.20;;;9.40;;
9413;SDS011;4746;35.664;139.738;2024-03-08T13:11:45;10.07;;;9.27;;
9413;SDS011;4746;35.664;139.738;2024-03-08T13:14:13;10.07;;;9.27;;
9413;SDS011;4746;35.664;139.738;2024-03-08T13:16:42;11.00;;;10.00;;
9413;SDS011;4746;35.664;139.738;2024-03-08T13:19:13;10.20;;;9.30;;
9413;SDS011;4746;35.664;139.738;2024-03-08T13:21:41;10.63;;;9.53;;
9413;SDS011;4746;35.664;139.738;2024-03-08T13:24:14;10.83;;;9.90;;
9413;SDS011;4746;35.664;139.738;2024-03-08T13:26:42;9.50;;;8.70;;
9413;SDS011;4746;35.664;139.738;2024-03-08T13:29:09;9.23;;;8.53;;
9413;SDS011;4746;35.664;139.738;2024-03-08T13:31:37;11.00;;;10.03;;
9413;SDS011;4746;35.664;139.738;2024-03-08T13:34:05;10.43;;;9.30;;
9413;SDS011;4746;35.664;139.738;2024-03-08T13:36:33;9.97;;;9.07;;
9413;SDS011;4746;35.664;139.738;2024-03-08T13:39:07;9.60;;;8.70;;
9413;SDS011;4746;35.664;139.738;2024-03-08T13:41:46;10.47;;;9.57;;
9413;SDS011;4746;35.664;139.738;2024-03-08T13:44:13;10.87;;;9.87;;
9413;SDS011;4746;35.664;139.738;2024-03-08T13:46:42;11.03;;;10.03;;
9413;SDS011;4746;35.664;139.738;2024-03-08T13:49:16;11.40;;;10.40;;
9413;SDS011;4746;35.664;139.738;2024-03-08T13:51:44;10.83;;;9.83;;
9413;SDS011;4746;35.664;139.738;2024-03-08T13:54:17;10.00;;;9.10;;
9413;SDS011;4746;35.664;139.738;2024-03-08T13:56:49;10.20;;;9.27;;
9413;SDS011;4746;35.664;139.738;2024-03-08T13:59:20;10.67;;;9.57;;
9413;SDS011;4746;35.664;139.738;2024-03-08T14:01:51;10.90;;;9.90;;
9413;SDS011;4746;35.664;139.738;2024-03-08T14:04:19;10.07;;;9.17;;
9413;SDS011;4746;35.664;139.738;2024-03-08T14:06:47;10.57;;;9.60;;
9413;SDS011;4746;35.664;139.738;2024-03-08T14:09:17;12.57;;;10.73;;
9413;SDS011;4746;35.664;139.738;2024-03-08T14:11:44;11.93;;;10.83;;
9413;SDS011;4746;35.664;139.738;2024-03-08T14:14:13;12.97;;;11.80;;
9413;SDS011;4746;35.664;139.738;2024-03-08T14:16:51;12.40;;;11.20;;
9413;SDS011;4746;35.664;139.738;2024-03-08T14:19:20;12.90;;;11.60;;
9413;SDS011;4746;35.664;139.738;2024-03-08T14:21:48;12.93;;;11.70;;
9413;SDS011;4746;35.664;139.738;2024-03-08T14:24:19;12.73;;;11.33;;
9413;SDS011;4746;35.664;139.738;2024-03-08T14:26:46;13.93;;;12.63;;
9413;SDS011;4746;35.664;139.738;2024-03-08T14:29:15;13.63;;;12.23;;
9413;SDS011;4746;35.664;139.738;2024-03-08T14:31:46;14.20;;;12.90;;
9413;SDS011;4746;35.664;139.738;2024-03-08T14:34:14;13.67;;;12.33;;
9413;SDS011;4746;35.664;139.738;2024-03-08T14:36:42;14.37;;;13.00;;
9413;SDS011;4746;35.664;139.738;2024-03-08T14:39:10;14.60;;;13.23;;
9413;SDS011;4746;35.664;139.738;2024-03-08T14:41:38;14.77;;;13.47;;
9413;SDS011;4746;35.664;139.738;2024-03-08T14:44:06;15.70;;;13.97;;
9413;SDS011;4746;35.664;139.738;2024-03-08T14:46:34;15.17;;;13.67;;
9413;SDS011;4746;35.664;139.738;2024-03-08T14:49:02;16.67;;;15.00;;
9413;SDS011;4746;35.664;139.738;2024-03-08T14:51:31;16.73;;;15.07;;
9413;SDS011;4746;35.664;139.738;2024-03-08T14:53:58;16.03;;;14.40;;
9413;SDS011;4746;35.664;139.738;2024-03-08T14:56:26;15.60;;;14.10;;
9413;SDS011;4746;35.664;139.738;2024-03-08T14:58:56;16.13;;;14.53;;
9413;SDS011;4746;35.664;139.738;2024-03-08T15:01:25;16.47;;;14.87;;